sensor_id;sensor_type;location;lat;lon;timestamp;pressure;altitude;pressure_sealevel;temperature;humidity
45357;BME280;31092;51.924;21.448;2023-03-21T00:01:04;100065.53;;;7.69;100.00
45357;BME280;31092;51.924;21.448;2023-03-21T00:03:33;100000.09;;;7.26;100.00
45357;BME280;31092;51.924;21.448;2023-03-21T00:06:05;100085.81;;;7.72;100.00
45357;BME280;31092;51.924;21.448;2023-03-21T00:08:30;100036.25;;;7.40;100.00
45357;BME280;31092;51.924;21.448;2023-03-21T00:11:01;99986.34;;;7.11;100.00
45357;BME280;31092;51.924;21.448;2023-03-21T00:13:28;100026.41;;;7.31;100.00
45357;BME280;31092;51.924;21.448;2023-03-21T00:16:10;100091.50;;;7.68;100.00
45357;BME280;31092;51.924;21.448;2023-03-21T00:18:45;100055.94;;;7.49;100.00
45357;BME280;31092;51.924;21.448;2023-03-21T00:21:14;100069.03;;;7.52;100.00
45357;BME280;31092;51.924;21.448;2023-03-21T00:23:41;100085.91;;;7.62;100.00
45357;BME280;31092;51.924;21.448;2023-03-21T00:26:07;100076.47;;;7.58;100.00
45357;BME280;31092;51.924;21.448;2023-03-21T00:28:36;100067.50;;;7.49;100.00
45357;BME280;31092;51.924;21.448;2023-03-21T00:31:02;99995.13;;;7.04;100.00
45357;BME280;31092;51.924;21.448;2023-03-21T00:33:34;100069.38;;;7.39;100.00
45357;BME280;31092;51.924;21.448;2023-03-21T00:36:00;99990.41;;;6.88;100.00
45357;BME280;31092;51.924;21.448;2023-03-21T00:38:27;99966.66;;;6.75;100.00
45357;BME280;31092;51.924;21.448;2023-03-21T00:40:52;99990.00;;;6.83;100.00
45357;BME280;31092;51.924;21.448;2023-03-21T00:43:18;100038.22;;;7.10;100.00
45357;BME280;31092;51.924;21.448;2023-03-21T00:45:48;100010.16;;;6.87;100.00
45357;BME280;31092;51.924;21.448;2023-03-21T00:48:14;99986.97;;;6.68;100.00
45357;BME280;31092;51.924;21.448;2023-03-21T00:50:40;99987.25;;;6.65;100.00
45357;BME280;31092;51.924;21.448;2023-03-21T00:53:06;100065.47;;;7.06;100.00
45357;BME280;31092;51.924;21.448;2023-03-21T00:55:32;99985.75;;;6.62;100.00
45357;BME280;31092;51.924;21.448;2023-03-21T00:57:58;99983.19;;;6.61;100.00
45357;BME280;31092;51.924;21.448;2023-03-21T01:00:24;100062.06;;;7.04;100.00
45357;BME280;31092;51.924;21.448;2023-03-21T01:02:49;100054.31;;;7.01;100.00
45357;BME280;31092;51.924;21.448;2023-03-21T01:05:32;100078.41;;;7.10;100.00
45357;BME280;31092;51.924;21.448;2023-03-21T01:08:18;100075.31;;;7.05;100.00
45357;BME280;31092;51.924;21.448;2023-03-21T01:10:46;99976.94;;;6.42;100.00
45357;BME280;31092;51.924;21.448;2023-03-21T01:13:14;99960.78;;;6.34;100.00
45357;BME280;31092;51.924;21.448;2023-03-21T01:15:45;100011.66;;;6.62;100.00
45357;BME280;31092;51.924;21.448;2023-03-21T01:18:13;99983.66;;;6.46;100.00
45357;BME280;31092;51.924;21.448;2023-03-21T01:20:41;100068.88;;;6.98;100.00
45357;BME280;31092;51.924;21.448;2023-03-21T01:23:07;99992.13;;;6.52;100.00
45357;BME280;31092;51.924;21.448;2023-03-21T01:25:33;100044.41;;;6.83;100.00
45357;BME280;31092;51.924;21.448;2023-03-21T01:27:58;100078.00;;;7.05;100.00
45357;BME280;31092;51.924;21.448;2023-03-21T01:30:24;99975.09;;;6.43;100.00
45357;BME280;31092;51.924;21.448;2023-03-21T01:32:50;99984.50;;;6.47;100.00
45357;BME280;31092;51.924;21.448;2023-03-21T01:35:15;100055.91;;;6.93;100.00
45357;BME280;31092;51.924;21.448;2023-03-21T01:37:41;99998.13;;;6.63;100.00
45357;BME280;31092;51.924;21.448;2023-03-21T01:40:10;100045.19;;;6.93;100.00
45357;BME280;31092;51.924;21.448;2023-03-21T01:42:37;100055.19;;;7.01;100.00
45357;BME280;31092;51.924;21.448;2023-03-21T01:48:07;99998.53;;;6.68;100.00
45357;BME280;31092;51.924;21.448;2023-03-21T01:50:33;100043.94;;;6.98;100.00
45357;BME280;31092;51.924;21.448;2023-03-21T01:52:59;100013.72;;;6.78;100.00
45357;BME280;31092;51.924;21.448;2023-03-21T01:55:25;99995.84;;;6.68;100.00
45357;BME280;31092;51.924;21.448;2023-03-21T01:57:53;100002.34;;;6.66;100.00
45357;BME280;31092;51.924;21.448;2023-03-21T02:00:23;100049.28;;;6.98;100.00
45357;BME280;31092;51.924;21.448;2023-03-21T02:02:51;100049.84;;;7.01;100.00
45357;BME280;31092;51.924;21.448;2023-03-21T02:05:35;100005.41;;;6.71;100.00
45357;BME280;31092;51.924;21.448;2023-03-21T02:08:01;100053.91;;;7.05;100.00
45357;BME280;31092;51.924;21.448;2023-03-21T02:10:27;99988.25;;;6.64;100.00
45357;BME280;31092;51.924;21.448;2023-03-21T02:12:57;99984.59;;;6.65;100.00
45357;BME280;31092;51.924;21.448;2023-03-21T02:15:32;100075.44;;;7.13;100.00
45357;BME280;31092;51.924;21.448;2023-03-21T02:26:38;99976.63;;;6.55;100.00
45357;BME280;31092;51.924;21.448;2023-03-21T02:30:05;100061.09;;;7.05;100.00
45357;BME280;31092;51.924;21.448;2023-03-21T02:32:40;100061.53;;;7.00;100.00
45357;BME280;31092;51.924;21.448;2023-03-21T02:40:54;100065.66;;;6.94;100.00
45357;BME280;31092;51.924;21.448;2023-03-21T02:43:30;100030.22;;;6.73;100.00
45357;BME280;31092;51.924;21.448;2023-03-21T02:48:56;100030.06;;;6.75;100.00
45357;BME280;31092;51.924;21.448;2023-03-21T02:51:24;100003.78;;;6.60;100.00
45357;BME280;31092;51.924;21.448;2023-03-21T02:54:01;100038.81;;;6.77;100.00
45357;BME280;31092;51.924;21.448;2023-03-21T02:56:29;100048.63;;;6.86;100.00
45357;BME280;31092;51.924;21.448;2023-03-21T02:58:55;100041.47;;;6.77;100.00
45357;BME280;31092;51.924;21.448;2023-03-21T03:01:21;100043.16;;;6.78;100.00
45357;BME280;31092;51.924;21.448;2023-03-21T03:03:50;99966.69;;;6.28;100.00
45357;BME280;31092;51.924;21.448;2023-03-21T03:06:23;99979.06;;;6.29;100.00
45357;BME280;31092;51.924;21.448;2023-03-21T03:11:37;99975.28;;;6.22;100.00
45357;BME280;31092;51.924;21.448;2023-03-21T03:14:23;100068.53;;;6.74;100.00
45357;BME280;31092;51.924;21.448;2023-03-21T03:19:26;99994.84;;;6.22;100.00
45357;BME280;31092;51.924;21.448;2023-03-21T03:24:28;100026.38;;;6.38;100.00
45357;BME280;31092;51.924;21.448;2023-03-21T03:26:59;100039.19;;;6.44;100.00
45357;BME280;31092;51.924;21.448;2023-03-21T03:29:28;100047.59;;;6.40;100.00
45357;BME280;31092;51.924;21.448;2023-03-21T03:32:02;99967.44;;;5.91;100.00
45357;BME280;31092;51.924;21.448;2023-03-21T03:34:33;100056.19;;;6.43;100.00
45357;BME280;31092;51.924;21.448;2023-03-21T03:37:04;99984.63;;;5.98;100.00
45357;BME280;31092;51.924;21.448;2023-03-21T03:39:47;99972.66;;;5.93;100.00
45357;BME280;31092;51.924;21.448;2023-03-21T03:42:23;99965.63;;;5.92;100.00
45357;BME280;31092;51.924;21.448;2023-03-21T03:44:50;100052.84;;;6.41;100.00
45357;BME280;31092;51.924;21.448;2023-03-21T03:47:22;100068.28;;;6.57;100.00
45357;BME280;31092;51.924;21.448;2023-03-21T03:50:39;100054.06;;;6.47;100.00
45357;BME280;31092;51.924;21.448;2023-03-21T03:52:41;100067.88;;;6.62;100.00
45357;BME280;31092;51.924;21.448;2023-03-21T03:55:11;100070.38;;;6.63;100.00
45357;BME280;31092;51.924;21.448;2023-03-21T03:57:39;99977.72;;;6.06;100.00
45357;BME280;31092;51.924;21.448;2023-03-21T04:00:05;99979.25;;;6.08;100.00
45357;BME280;31092;51.924;21.448;2023-03-21T04:02:37;100062.50;;;6.62;100.00
45357;BME280;31092;51.924;21.448;2023-03-21T04:05:04;100075.28;;;6.68;100.00
45357;BME280;31092;51.924;21.448;2023-03-21T04:07:30;100009.75;;;6.35;100.00
45357;BME280;31092;51.924;21.448;2023-03-21T04:09:56;100071.22;;;6.74;100.00
45357;BME280;31092;51.924;21.448;2023-03-21T04:12:23;99973.63;;;6.11;100.00
45357;BME280;31092;51.924;21.448;2023-03-21T04:14:49;100080.38;;;6.71;100.00
45357;BME280;31092;51.924;21.448;2023-03-21T04:17:15;100072.63;;;6.68;100.00
45357;BME280;31092;51.924;21.448;2023-03-21T04:19:40;99996.56;;;6.23;100.00
45357;BME280;31092;51.924;21.448;2023-03-21T04:22:06;99977.56;;;6.17;100.00
45357;BME280;31092;51.924;21.448;2023-03-21T04:24:32;99965.75;;;6.10;100.00
45357;BME280;31092;51.924;21.448;2023-03-21T04:26:59;100013.44;;;6.34;100.00
45357;BME280;31092;51.924;21.448;2023-03-21T04:29:25;99943.25;;;5.93;100.00
45357;BME280;31092;51.924;21.448;2023-03-21T04:31:54;100008.22;;;6.32;100.00
45357;BME280;31092;51.924;21.448;2023-03-21T04:34:20;100060.41;;;6.65;100.00
45357;BME280;31092;51.924;21.448;2023-03-21T04:36:51;99980.91;;;6.19;100.00
45357;BME280;31092;51.924;21.448;2023-03-21T04:39:18;100018.19;;;6.40;100.00
45357;BME280;31092;51.924;21.448;2023-03-21T04:41:45;99983.03;;;6.25;100.00
45357;BME280;31092;51.924;21.448;2023-03-21T04:44:12;100058.69;;;6.64;100.00
45357;BME280;31092;51.924;21.448;2023-03-21T04:46:38;100081.91;;;6.74;100.00
45357;BME280;31092;51.924;21.448;2023-03-21T04:49:04;100078.66;;;6.80;100.00
45357;BME280;31092;51.924;21.448;2023-03-21T04:51:31;100047.59;;;6.59;100.00
45357;BME280;31092;51.924;21.448;2023-03-21T04:53:57;100006.53;;;6.31;100.00
45357;BME280;31092;51.924;21.448;2023-03-21T04:56:24;100007.91;;;6.35;100.00
45357;BME280;31092;51.924;21.448;2023-03-21T04:59:00;99989.94;;;6.18;100.00
45357;BME280;31092;51.924;21.448;2023-03-21T05:01:27;100081.47;;;6.78;100.00
45357;BME280;31092;51.924;21.448;2023-03-21T05:04:02;99991.34;;;6.22;100.00
45357;BME280;31092;51.924;21.448;2023-03-21T05:06:29;99976.72;;;6.16;100.00
45357;BME280;31092;51.924;21.448;2023-03-21T05:08:56;100078.41;;;6.73;100.00
45357;BME280;31092;51.924;21.448;2023-03-21T05:11:25;100071.09;;;6.65;100.00
45357;BME280;31092;51.924;21.448;2023-03-21T05:13:51;100081.19;;;6.71;100.00
45357;BME280;31092;51.924;21.448;2023-03-21T05:16:17;100091.34;;;6.78;100.00
45357;BME280;31092;51.924;21.448;2023-03-21T05:18:42;100065.75;;;6.65;100.00
45357;BME280;31092;51.924;21.448;2023-03-21T05:21:08;99993.44;;;6.18;100.00
45357;BME280;31092;51.924;21.448;2023-03-21T05:23:35;99971.66;;;6.13;100.00
45357;BME280;31092;51.924;21.448;2023-03-21T05:26:07;100012.59;;;6.33;100.00
45357;BME280;31092;51.924;21.448;2023-03-21T05:28:34;100089.50;;;6.78;100.00
45357;BME280;31092;51.924;21.448;2023-03-21T05:31:04;100101.47;;;6.84;100.00
45357;BME280;31092;51.924;21.448;2023-03-21T05:33:29;100010.59;;;6.35;100.00
45357;BME280;31092;51.924;21.448;2023-03-21T05:35:55;100009.91;;;6.33;100.00
45357;BME280;31092;51.924;21.448;2023-03-21T05:38:21;100090.06;;;6.82;100.00
45357;BME280;31092;51.924;21.448;2023-03-21T05:40:47;100010.19;;;6.30;100.00
45357;BME280;31092;51.924;21.448;2023-03-21T05:43:13;100093.31;;;6.76;100.00
45357;BME280;31092;51.924;21.448;2023-03-21T05:45:39;100018.78;;;6.34;100.00
45357;BME280;31092;51.924;21.448;2023-03-21T05:48:05;100091.50;;;6.76;100.00
45357;BME280;31092;51.924;21.448;2023-03-21T05:50:32;100115.13;;;6.90;100.00
45357;BME280;31092;51.924;21.448;2023-03-21T05:52:57;99986.59;;;6.16;100.00
45357;BME280;31092;51.924;21.448;2023-03-21T05:55:23;100105.94;;;6.93;100.00
45357;BME280;31092;51.924;21.448;2023-03-21T05:57:49;100016.22;;;6.42;100.00
45357;BME280;31092;51.924;21.448;2023-03-21T06:00:15;100052.03;;;6.68;100.00
45357;BME280;31092;51.924;21.448;2023-03-21T06:02:42;100103.06;;;7.04;100.00
45357;BME280;31092;51.924;21.448;2023-03-21T06:05:08;100081.16;;;6.91;100.00
45357;BME280;31092;51.924;21.448;2023-03-21T06:07:35;100040.09;;;6.72;100.00
45357;BME280;31092;51.924;21.448;2023-03-21T06:10:02;100088.84;;;7.04;100.00
45357;BME280;31092;51.924;21.448;2023-03-21T06:12:28;100111.63;;;7.17;100.00
45357;BME280;31092;51.924;21.448;2023-03-21T06:14:55;100118.09;;;7.25;100.00
45357;BME280;31092;51.924;21.448;2023-03-21T06:17:20;100041.88;;;6.82;100.00
45357;BME280;31092;51.924;21.448;2023-03-21T06:19:46;100101.09;;;7.16;100.00
45357;BME280;31092;51.924;21.448;2023-03-21T06:22:11;100050.75;;;6.82;100.00
45357;BME280;31092;51.924;21.448;2023-03-21T06:24:37;100112.34;;;7.19;100.00
45357;BME280;31092;51.924;21.448;2023-03-21T06:27:03;100050.34;;;6.77;100.00
45357;BME280;31092;51.924;21.448;2023-03-21T06:29:28;100112.09;;;7.13;100.00
45357;BME280;31092;51.924;21.448;2023-03-21T06:31:54;100049.09;;;6.71;100.00
45357;BME280;31092;51.924;21.448;2023-03-21T06:34:19;100046.56;;;6.70;100.00
45357;BME280;31092;51.924;21.448;2023-03-21T06:36:45;100041.94;;;6.62;100.00
45357;BME280;31092;51.924;21.448;2023-03-21T06:39:11;100032.38;;;6.60;100.00
45357;BME280;31092;51.924;21.448;2023-03-21T06:41:37;100104.50;;;7.08;100.00
45357;BME280;31092;51.924;21.448;2023-03-21T06:44:03;100124.56;;;7.22;100.00
45357;BME280;31092;51.924;21.448;2023-03-21T06:46:29;100036.41;;;6.74;100.00
45357;BME280;31092;51.924;21.448;2023-03-21T06:48:55;100145.50;;;7.46;100.00
45357;BME280;31092;51.924;21.448;2023-03-21T06:51:20;100043.81;;;6.89;100.00
45357;BME280;31092;51.924;21.448;2023-03-21T06:53:46;100042.13;;;6.88;100.00
45357;BME280;31092;51.924;21.448;2023-03-21T06:56:12;100078.19;;;7.22;100.00
45357;BME280;31092;51.924;21.448;2023-03-21T06:58:39;100148.22;;;7.64;100.00
45357;BME280;31092;51.924;21.448;2023-03-21T07:01:05;100054.38;;;7.18;100.00
45357;BME280;31092;51.924;21.448;2023-03-21T07:03:31;100046.34;;;7.18;100.00
45357;BME280;31092;51.924;21.448;2023-03-21T07:06:03;100140.69;;;7.77;100.00
45357;BME280;31092;51.924;21.448;2023-03-21T07:08:28;100080.94;;;7.39;100.00
45357;BME280;31092;51.924;21.448;2023-03-21T07:10:55;100064.13;;;7.19;100.00
45357;BME280;31092;51.924;21.448;2023-03-21T07:13:22;100155.69;;;7.70;100.00
45357;BME280;31092;51.924;21.448;2023-03-21T07:15:47;100059.75;;;7.18;100.00
45357;BME280;31092;51.924;21.448;2023-03-21T07:18:13;100095.03;;;7.41;100.00
45357;BME280;31092;51.924;21.448;2023-03-21T07:20:38;100060.44;;;7.20;100.00
45357;BME280;31092;51.924;21.448;2023-03-21T07:23:04;100155.94;;;7.77;100.00
45357;BME280;31092;51.924;21.448;2023-03-21T07:25:30;100142.56;;;7.67;100.00
45357;BME280;31092;51.924;21.448;2023-03-21T07:27:57;100058.97;;;7.08;100.00
45357;BME280;31092;51.924;21.448;2023-03-21T07:30:22;100071.16;;;7.20;100.00
45357;BME280;31092;51.924;21.448;2023-03-21T07:32:48;100065.81;;;7.20;100.00
45357;BME280;31092;51.924;21.448;2023-03-21T07:35:15;100135.81;;;7.63;100.00
45357;BME280;31092;51.924;21.448;2023-03-21T07:37:42;100163.72;;;7.70;100.00
45357;BME280;31092;51.924;21.448;2023-03-21T07:40:09;100147.69;;;7.60;100.00
45357;BME280;31092;51.924;21.448;2023-03-21T07:42:38;100081.78;;;7.12;100.00
45357;BME280;31092;51.924;21.448;2023-03-21T07:45:05;100102.84;;;7.25;100.00
45357;BME280;31092;51.924;21.448;2023-03-21T07:47:32;100086.13;;;7.13;100.00
45357;BME280;31092;51.924;21.448;2023-03-21T07:49:58;100145.06;;;7.51;100.00
45357;BME280;31092;51.924;21.448;2023-03-21T07:52:24;100078.56;;;7.09;100.00
45357;BME280;31092;51.924;21.448;2023-03-21T07:54:50;100084.75;;;7.09;100.00
45357;BME280;31092;51.924;21.448;2023-03-21T07:57:15;100131.16;;;7.37;100.00
45357;BME280;31092;51.924;21.448;2023-03-21T07:59:42;100175.75;;;7.66;100.00
45357;BME280;31092;51.924;21.448;2023-03-21T08:02:15;100111.59;;;7.27;100.00
45357;BME280;31092;51.924;21.448;2023-03-21T08:04:41;100102.59;;;7.18;100.00
45357;BME280;31092;51.924;21.448;2023-03-21T08:07:06;100100.63;;;7.20;100.00
45357;BME280;31092;51.924;21.448;2023-03-21T08:09:32;100135.78;;;7.45;100.00
45357;BME280;31092;51.924;21.448;2023-03-21T08:11:58;100132.81;;;7.48;100.00
45357;BME280;31092;51.924;21.448;2023-03-21T08:14:23;100088.34;;;7.28;100.00
45357;BME280;31092;51.924;21.448;2023-03-21T08:16:49;100075.97;;;7.17;100.00
45357;BME280;31092;51.924;21.448;2023-03-21T08:19:14;100149.31;;;7.71;100.00
45357;BME280;31092;51.924;21.448;2023-03-21T08:21:40;100130.13;;;7.76;100.00
45357;BME280;31092;51.924;21.448;2023-03-21T08:24:06;100074.94;;;7.55;100.00
45357;BME280;31092;51.924;21.448;2023-03-21T08:26:32;100081.50;;;7.61;100.00
45357;BME280;31092;51.924;21.448;2023-03-21T08:28:58;100112.03;;;7.78;100.00
45357;BME280;31092;51.924;21.448;2023-03-21T08:31:24;100089.25;;;7.64;100.00
45357;BME280;31092;51.924;21.448;2023-03-21T08:33:50;100143.09;;;7.98;100.00
45357;BME280;31092;51.924;21.448;2023-03-21T08:36:20;100177.22;;;8.06;100.00
45357;BME280;31092;51.924;21.448;2023-03-21T08:38:45;100067.41;;;7.41;100.00
45357;BME280;31092;51.924;21.448;2023-03-21T08:41:15;100081.31;;;7.54;100.00
45357;BME280;31092;51.924;21.448;2023-03-21T08:43:41;100175.78;;;8.11;100.00
45357;BME280;31092;51.924;21.448;2023-03-21T08:46:06;100173.16;;;8.02;100.00
45357;BME280;31092;51.924;21.448;2023-03-21T08:48:32;100175.28;;;7.98;100.00
45357;BME280;31092;51.924;21.448;2023-03-21T08:51:00;100126.78;;;7.64;100.00
45357;BME280;31092;51.924;21.448;2023-03-21T08:53:26;100116.13;;;7.54;100.00
45357;BME280;31092;51.924;21.448;2023-03-21T08:55:51;100167.53;;;7.95;100.00
45357;BME280;31092;51.924;21.448;2023-03-21T08:58:17;100179.88;;;8.06;100.00
45357;BME280;31092;51.924;21.448;2023-03-21T09:00:42;100189.03;;;8.13;100.00
45357;BME280;31092;51.924;21.448;2023-03-21T09:03:08;100171.69;;;8.07;100.00
45357;BME280;31092;51.924;21.448;2023-03-21T09:05:34;100182.59;;;8.24;100.00
45357;BME280;31092;51.924;21.448;2023-03-21T09:08:01;100170.47;;;8.20;100.00
45357;BME280;31092;51.924;21.448;2023-03-21T09:10:28;100101.47;;;7.76;100.00
45357;BME280;31092;51.924;21.448;2023-03-21T09:12:54;100109.22;;;7.79;100.00
45357;BME280;31092;51.924;21.448;2023-03-21T09:15:23;100135.34;;;7.95;100.00
45357;BME280;31092;51.924;21.448;2023-03-21T09:17:49;100111.03;;;7.79;100.00
45357;BME280;31092;51.924;21.448;2023-03-21T09:20:18;100104.41;;;7.83;100.00
45357;BME280;31092;51.924;21.448;2023-03-21T09:22:49;100166.19;;;8.27;100.00
45357;BME280;31092;51.924;21.448;2023-03-21T09:25:16;100118.66;;;8.01;100.00
45357;BME280;31092;51.924;21.448;2023-03-21T09:27:43;100198.44;;;8.62;100.00
45357;BME280;31092;51.924;21.448;2023-03-21T09:30:11;100137.41;;;8.47;100.00
45357;BME280;31092;51.924;21.448;2023-03-21T09:32:38;100204.91;;;8.96;100.00
45357;BME280;31092;51.924;21.448;2023-03-21T09:35:05;100124.72;;;8.57;100.00
45357;BME280;31092;51.924;21.448;2023-03-21T09:37:31;100215.09;;;9.10;100.00
45357;BME280;31092;51.924;21.448;2023-03-21T09:39:57;100218.03;;;9.25;100.00
45357;BME280;31092;51.924;21.448;2023-03-21T09:47:55;100219.53;;;9.19;100.00
45357;BME280;31092;51.924;21.448;2023-03-21T09:50:30;100133.97;;;8.80;100.00
45357;BME280;31092;51.924;21.448;2023-03-21T09:53:04;100214.09;;;9.37;100.00
45357;BME280;31092;51.924;21.448;2023-03-21T09:55:36;100141.50;;;9.03;100.00
45357;BME280;31092;51.924;21.448;2023-03-21T09:58:34;100199.75;;;9.54;100.00
45357;BME280;31092;51.924;21.448;2023-03-21T10:01:15;100206.00;;;9.63;100.00
45357;BME280;31092;51.924;21.448;2023-03-21T10:03:51;100198.53;;;9.49;100.00
45357;BME280;31092;51.924;21.448;2023-03-21T10:06:19;100126.97;;;8.87;100.00
45357;BME280;31092;51.924;21.448;2023-03-21T10:08:51;100120.09;;;8.67;100.00
45357;BME280;31092;51.924;21.448;2023-03-21T10:11:21;100207.72;;;9.12;100.00
45357;BME280;31092;51.924;21.448;2023-03-21T10:14:34;100214.78;;;9.13;100.00
45357;BME280;31092;51.924;21.448;2023-03-21T10:16:39;100125.63;;;8.66;100.00
45357;BME280;31092;51.924;21.448;2023-03-21T10:19:14;100113.09;;;8.74;100.00
45357;BME280;31092;51.924;21.448;2023-03-21T10:21:42;100115.06;;;8.90;100.00
45357;BME280;31092;51.924;21.448;2023-03-21T10:24:11;100123.41;;;9.13;100.00
45357;BME280;31092;51.924;21.448;2023-03-21T10:26:38;100185.81;;;9.59;100.00
45357;BME280;31092;51.924;21.448;2023-03-21T10:29:04;100123.94;;;9.43;100.00
45357;BME280;31092;51.924;21.448;2023-03-21T10:31:30;100194.59;;;10.03;100.00
45357;BME280;31092;51.924;21.448;2023-03-21T10:34:01;100126.22;;;9.72;100.00
45357;BME280;31092;51.924;21.448;2023-03-21T10:36:30;100125.84;;;9.67;100.00
45357;BME280;31092;51.924;21.448;2023-03-21T10:39:17;100196.50;;;9.85;100.00
45357;BME280;31092;51.924;21.448;2023-03-21T10:41:43;100127.03;;;9.30;100.00
45357;BME280;31092;51.924;21.448;2023-03-21T10:44:15;100137.28;;;9.26;100.00
45357;BME280;31092;51.924;21.448;2023-03-21T10:46:52;100127.91;;;9.04;100.00
45357;BME280;31092;51.924;21.448;2023-03-21T10:49:19;100161.41;;;9.18;100.00
45357;BME280;31092;51.924;21.448;2023-03-21T10:51:50;100209.88;;;9.34;100.00
45357;BME280;31092;51.924;21.448;2023-03-21T10:54:22;100124.44;;;8.86;100.00
45357;BME280;31092;51.924;21.448;2023-03-21T10:57:04;100179.13;;;9.29;100.00
45357;BME280;31092;51.924;21.448;2023-03-21T11:02:18;100136.63;;;9.32;100.00
45357;BME280;31092;51.924;21.448;2023-03-21T11:04:45;100157.78;;;9.35;100.00
45357;BME280;31092;51.924;21.448;2023-03-21T11:07:13;100206.28;;;9.52;100.00
45357;BME280;31092;51.924;21.448;2023-03-21T11:09:48;100134.44;;;9.02;100.00
45357;BME280;31092;51.924;21.448;2023-03-21T11:12:16;100147.88;;;9.02;100.00
45357;BME280;31092;51.924;21.448;2023-03-21T11:14:45;100136.59;;;8.98;100.00
45357;BME280;31092;51.924;21.448;2023-03-21T11:19:52;100214.50;;;9.84;100.00
45357;BME280;31092;51.924;21.448;2023-03-21T11:22:20;100205.63;;;9.92;100.00
45357;BME280;31092;51.924;21.448;2023-03-21T11:24:58;100177.34;;;9.80;100.00
45357;BME280;31092;51.924;21.448;2023-03-21T11:27:26;100133.03;;;9.50;100.00
45357;BME280;31092;51.924;21.448;2023-03-21T11:29:54;100206.63;;;9.91;100.00
45357;BME280;31092;51.924;21.448;2023-03-21T11:32:36;100186.22;;;9.72;100.00
45357;BME280;31092;51.924;21.448;2023-03-21T11:35:19;100113.09;;;9.26;100.00
45357;BME280;31092;51.924;21.448;2023-03-21T11:37:50;100206.94;;;9.88;100.00
45357;BME280;31092;51.924;21.448;2023-03-21T11:42:48;100183.84;;;10.12;100.00
45357;BME280;31092;51.924;21.448;2023-03-21T11:45:36;100205.06;;;10.23;100.00
45357;BME280;31092;51.924;21.448;2023-03-21T11:48:11;100174.66;;;9.88;100.00
45357;BME280;31092;51.924;21.448;2023-03-21T11:50:40;100149.34;;;9.56;100.00
45357;BME280;31092;51.924;21.448;2023-03-21T11:55:59;100209.88;;;9.61;100.00
45357;BME280;31092;51.924;21.448;2023-03-21T12:15:20;100230.19;;;8.67;100.00
45357;BME280;31092;51.924;21.448;2023-03-21T12:20:38;100209.94;;;8.55;100.00
45357;BME280;31092;51.924;21.448;2023-03-21T12:25:55;100202.44;;;8.31;100.00
45357;BME280;31092;51.924;21.448;2023-03-21T12:28:54;100227.72;;;8.38;100.00
45357;BME280;31092;51.924;21.448;2023-03-21T12:32:14;100232.34;;;8.36;100.00
45357;BME280;31092;51.924;21.448;2023-03-21T12:37:15;100224.25;;;8.46;100.00
45357;BME280;31092;51.924;21.448;2023-03-21T12:39:45;100224.25;;;8.46;100.00
45357;BME280;31092;51.924;21.448;2023-03-21T12:42:49;100200.88;;;8.38;100.00
45357;BME280;31092;51.924;21.448;2023-03-21T12:45:22;100136.44;;;8.02;100.00
45357;BME280;31092;51.924;21.448;2023-03-21T12:47:53;100178.38;;;8.21;100.00
45357;BME280;31092;51.924;21.448;2023-03-21T12:50:33;100201.75;;;8.29;100.00
45357;BME280;31092;51.924;21.448;2023-03-21T12:55:50;100208.34;;;8.44;100.00
45357;BME280;31092;51.924;21.448;2023-03-21T12:58:21;100127.09;;;8.06;100.00
45357;BME280;31092;51.924;21.448;2023-03-21T13:00:53;100109.44;;;8.04;100.00
45357;BME280;31092;51.924;21.448;2023-03-21T13:03:23;100113.75;;;8.14;100.00
45357;BME280;31092;51.924;21.448;2023-03-21T13:05:56;100118.38;;;8.22;100.00
45357;BME280;31092;51.924;21.448;2023-03-21T13:08:28;100124.03;;;8.37;100.00
45357;BME280;31092;51.924;21.448;2023-03-21T13:10:57;100151.41;;;8.58;100.00
45357;BME280;31092;51.924;21.448;2023-03-21T13:13:34;100144.97;;;8.51;100.00
45357;BME280;31092;51.924;21.448;2023-03-21T13:27:12;100173.41;;;8.80;100.00
45357;BME280;31092;51.924;21.448;2023-03-21T13:29:45;100194.38;;;9.02;100.00
45357;BME280;31092;51.924;21.448;2023-03-21T13:32:29;100118.19;;;8.59;100.00
45357;BME280;31092;51.924;21.448;2023-03-21T13:34:59;100194.06;;;9.05;100.00
45357;BME280;31092;51.924;21.448;2023-03-21T13:37:33;100132.59;;;8.76;100.00
45357;BME280;31092;51.924;21.448;2023-03-21T13:40:05;100166.88;;;9.08;100.00
45357;BME280;31092;51.924;21.448;2023-03-21T13:42:42;100186.22;;;9.38;100.00
45357;BME280;31092;51.924;21.448;2023-03-21T13:45:20;100189.34;;;9.59;100.00
45357;BME280;31092;51.924;21.448;2023-03-21T13:47:54;100088.97;;;9.08;100.00
45357;BME280;31092;51.924;21.448;2023-03-21T13:50:29;100116.94;;;9.32;100.00
45357;BME280;31092;51.924;21.448;2023-03-21T13:55:42;100160.00;;;9.74;100.00
45357;BME280;31092;51.924;21.448;2023-03-21T14:01:32;100189.84;;;9.97;100.00
45357;BME280;31092;51.924;21.448;2023-03-21T14:04:16;100099.19;;;9.39;100.00
45357;BME280;31092;51.924;21.448;2023-03-21T14:06:49;100148.06;;;9.69;100.00
45357;BME280;31092;51.924;21.448;2023-03-21T14:09:27;100090.44;;;9.29;100.00
45357;BME280;31092;51.924;21.448;2023-03-21T14:11:54;100160.97;;;9.65;100.00
45357;BME280;31092;51.924;21.448;2023-03-21T14:14:24;100138.72;;;9.47;100.00
45357;BME280;31092;51.924;21.448;2023-03-21T14:16:54;100077.84;;;9.03;100.00
45357;BME280;31092;51.924;21.448;2023-03-21T14:19:20;100188.38;;;9.61;100.00
45357;BME280;31092;51.924;21.448;2023-03-21T14:21:52;100137.09;;;9.28;100.00